createdAt,value
2019-04-23T00:00:29.421Z,45.05
2019-04-23T00:03:21.060Z,45.90
2019-04-23T00:05:41.448Z,45.87
2019-04-23T00:08:13.222Z,45.83
2019-04-23T00:10:45.930Z,46.32
2019-04-23T00:13:12.497Z,46.46
2019-04-23T00:16:27.777Z,46.60
2019-04-23T00:18:42.640Z,46.64
2019-04-23T00:21:28.314Z,46.69
2019-04-23T00:24:01.701Z,47.00
2019-04-23T00:26:30.630Z,47.25
2019-04-23T00:29:08.682Z,47.19
2019-04-23T00:31:34.397Z,46.91
2019-04-23T00:34:05.449Z,47.11
2019-04-23T00:39:11.163Z,47.57
2019-04-23T00:44:15.188Z,48.02
2019-04-23T00:46:40.133Z,47.89
2019-04-23T00:49:22.092Z,48.23
2019-04-23T00:51:49.653Z,48.14
2019-04-23T00:54:26.223Z,48.42
2019-04-23T00:56:53.770Z,48.66
2019-04-23T00:59:28.255Z,49.09
2019-04-23T01:03:33.789Z,49.22
2019-04-23T01:05:52.720Z,49.26
2019-04-23T01:08:26.459Z,49.52
2019-04-23T01:11:16.717Z,49.56
2019-04-23T01:13:39.494Z,49.88
2019-04-23T01:18:58.276Z,50.36
2019-04-23T01:21:30.521Z,50.25
2019-04-23T01:24:16.068Z,50.80
2019-04-23T01:27:41.115Z,50.98
2019-04-23T01:30:05.325Z,51.08
2019-04-23T01:32:31.454Z,51.24
2019-04-23T01:35:15.209Z,51.84
2019-04-23T01:37:39.497Z,51.66
2019-04-23T01:40:12.097Z,51.71
2019-04-23T01:42:44.618Z,51.79
2019-04-23T01:45:21.816Z,51.83
2019-04-23T01:50:20.599Z,52.56
2019-04-23T01:53:12.336Z,52.46
2019-04-23T01:58:07.048Z,52.99
2019-04-23T02:00:30.352Z,53.00
2019-04-23T02:08:03.606Z,53.95
2019-04-23T02:10:49.066Z,54.33
2019-04-23T02:13:16.834Z,54.70
2019-04-23T02:15:45.997Z,55.03
2019-04-23T02:20:49.804Z,55.25
2019-04-23T02:23:33.209Z,54.89
2019-04-23T02:26:06.846Z,55.37
2019-04-23T02:28:39.172Z,55.80
2019-04-23T02:34:00.444Z,56.58
2019-04-23T02:44:01.129Z,57.45
2019-04-23T02:46:33.876Z,57.79
2019-04-23T02:49:15.280Z,58.29
2019-04-23T02:51:37.048Z,58.71
2019-04-23T02:54:16.047Z,58.55
2019-04-23T02:56:48.662Z,59.00
2019-04-23T03:09:33.831Z,59.61
2019-04-23T03:13:51.236Z,60.57
2019-04-23T03:19:14.831Z,60.93
2019-04-23T03:22:03.395Z,61.24
2019-04-23T03:25:29.875Z,61.71
2019-04-23T03:36:18.326Z,62.77
2019-04-23T03:38:02.661Z,62.38
2019-04-23T03:40:36.977Z,62.90
2019-04-23T03:43:06.545Z,63.70
2019-04-23T03:48:06.038Z,63.98
2019-04-23T03:50:37.924Z,64.00
2019-04-23T03:53:22.611Z,63.90
2019-04-23T03:55:45.342Z,64.11
2019-04-23T03:58:21.272Z,64.52
2019-04-23T04:03:42.203Z,66.07
2019-04-23T04:05:56.198Z,66.83
2019-04-23T04:08:38.841Z,67.31
2019-04-23T04:11:09.616Z,67.79
2019-04-23T04:13:30.929Z,68.42
2019-04-23T04:16:05.042Z,68.06
2019-04-23T04:18:41.662Z,67.38
2019-04-23T04:21:09.591Z,66.95
2019-04-23T04:23:43.193Z,67.10
2019-04-23T04:26:13.797Z,66.18
2019-04-23T04:28:46.082Z,66.53
2019-04-23T04:31:15.795Z,66.75
2019-04-23T04:36:44.647Z,68.70
2019-04-23T04:38:54.304Z,69.70
2019-04-23T04:44:22.196Z,70.88
2019-04-23T04:46:43.855Z,71.16
2019-04-23T04:49:20.062Z,71.52
2019-04-23T04:51:49.764Z,71.79
2019-04-23T04:54:17.779Z,71.26
2019-04-23T04:56:55.018Z,71.53
2019-04-23T05:04:07.402Z,70.56
2019-04-23T05:06:43.908Z,71.52
2019-04-23T05:09:14.501Z,71.18
2019-04-23T05:11:47.950Z,70.51
2019-04-23T05:16:47.021Z,71.09
2019-04-23T05:19:40.194Z,72.34
2019-04-23T05:22:00.518Z,71.81
2019-04-23T05:24:31.827Z,71.29
2019-04-23T05:26:58.460Z,71.21
2019-04-23T05:29:32.493Z,70.76
2019-04-23T05:32:09.426Z,71.06
2019-04-23T05:34:40.179Z,70.85
2019-04-23T05:37:12.957Z,71.25
2019-04-23T05:39:45.467Z,70.92
2019-04-23T05:42:20.127Z,70.43
2019-04-23T05:44:57.144Z,69.46
2019-04-23T05:50:02.045Z,70.21
2019-04-23T05:52:29.700Z,71.32
2019-04-23T05:55:01.542Z,69.12
2019-04-23T05:57:36.268Z,67.89
2019-04-23T06:00:07.627Z,67.27
2019-04-23T06:02:51.850Z,67.23
2019-04-23T06:05:20.136Z,66.15
2019-04-23T06:10:26.980Z,65.73
2019-04-23T06:13:03.186Z,66.75
2019-04-23T06:15:36.886Z,66.10
2019-04-23T06:20:48.644Z,65.39
2019-04-23T06:23:27.026Z,62.80
2019-04-23T06:25:57.360Z,62.38
2019-04-23T06:28:22.343Z,62.43
2019-04-23T06:30:58.803Z,62.29
2019-04-23T06:33:25.747Z,61.87
2019-04-23T06:35:58.335Z,62.25
2019-04-23T06:38:40.763Z,63.19
2019-04-23T06:41:06.785Z,62.63
2019-04-23T06:43:50.015Z,63.62
2019-04-23T06:46:20.120Z,62.71
2019-04-23T06:48:47.590Z,62.86
2019-04-23T06:51:29.210Z,61.69
2019-04-23T06:53:49.850Z,61.22
2019-04-23T06:56:26.887Z,61.49
2019-04-23T06:59:01.350Z,61.26
2019-04-23T07:03:31.237Z,60.94
2019-04-23T07:06:17.169Z,61.03
2019-04-23T07:08:56.329Z,61.04
2019-04-23T07:11:27.085Z,60.47
2019-04-23T07:13:57.559Z,59.73
2019-04-23T07:16:09.190Z,59.38
2019-04-23T07:18:51.364Z,59.21
2019-04-23T07:29:05.079Z,57.92
2019-04-23T07:34:01.293Z,58.06
2019-04-23T07:36:34.231Z,57.80
2019-04-23T07:42:16.825Z,57.50
2019-04-23T07:44:50.140Z,57.18
2019-04-23T07:50:00.660Z,57.22
2019-04-23T07:55:02.971Z,57.07
2019-04-23T07:57:29.191Z,56.66
2019-04-23T08:00:00.736Z,56.93
2019-04-23T08:02:47.694Z,56.33
2019-04-23T08:05:22.619Z,56.38
2019-04-23T08:10:10.099Z,56.11
2019-04-23T08:15:18.173Z,54.74
2019-04-23T08:17:43.430Z,54.99
2019-04-23T08:20:21.249Z,54.88
2019-04-23T08:22:53.565Z,55.67
2019-04-23T08:25:45.763Z,53.86
2019-04-23T08:28:25.753Z,54.87
2019-04-23T08:30:47.326Z,54.09
2019-04-23T08:33:19.159Z,53.40
2019-04-23T08:35:57.652Z,52.51
2019-04-23T08:38:33.321Z,52.31
2019-04-23T08:41:02.535Z,53.00
2019-04-23T08:43:42.894Z,52.89
2019-04-23T08:46:35.531Z,52.27
2019-04-23T08:49:06.741Z,52.26
2019-04-23T08:54:06.602Z,52.69
2019-04-23T08:56:46.105Z,51.93
2019-04-23T08:59:22.558Z,51.56
2019-04-23T09:08:33.152Z,50.33
2019-04-23T09:16:22.437Z,50.26
2019-04-23T09:18:42.536Z,50.72
2019-04-23T09:21:15.805Z,51.08
2019-04-23T09:23:46.763Z,49.83
2019-04-23T09:26:06.352Z,49.41
2019-04-23T09:34:46.619Z,49.42
2019-04-23T09:40:10.822Z,47.96
2019-04-23T09:42:54.317Z,48.46
2019-04-23T09:50:49.459Z,47.49
2019-04-23T09:55:43.688Z,46.91
2019-04-23T09:58:15.353Z,46.31
2019-04-23T10:01:19.606Z,45.44
2019-04-23T10:03:33.003Z,45.88
2019-04-23T10:05:59.802Z,45.04
2019-04-23T10:08:31.272Z,44.64
2019-04-23T10:10:55.602Z,44.56
2019-04-23T10:13:26.234Z,44.21
2019-04-23T10:15:58.059Z,43.58
2019-04-23T10:18:29.066Z,44.60
2019-04-23T10:21:01.378Z,43.80
2019-04-23T10:23:34.096Z,43.76
2019-04-23T10:26:07.945Z,44.87
2019-04-23T10:28:47.682Z,43.89
2019-04-23T10:31:18.703Z,43.08
2019-04-23T10:33:50.407Z,45.14
2019-04-23T10:36:23.920Z,44.80
2019-04-23T10:39:00.618Z,46.03
2019-04-23T10:41:25.783Z,46.03
2019-04-23T10:44:02.728Z,46.38
2019-04-23T10:47:12.153Z,46.04
2019-04-23T10:49:53.199Z,45.38
2019-04-23T10:52:28.107Z,44.09
2019-04-23T10:54:59.345Z,44.78
2019-04-23T10:57:31.900Z,45.27
2019-04-23T11:06:06.842Z,46.06
2019-04-23T11:19:26.691Z,45.26
2019-04-23T11:21:26.456Z,45.73
2019-04-23T11:23:56.048Z,45.34
2019-04-23T11:26:31.854Z,45.50
2019-04-23T11:28:51.878Z,45.79
2019-04-23T11:34:13.370Z,44.47
2019-04-23T11:36:53.685Z,44.94
2019-04-23T11:38:58.572Z,45.44
2019-04-23T11:46:53.501Z,43.58
2019-04-23T11:49:26.795Z,43.83
2019-04-23T11:51:54.071Z,44.14
2019-04-23T11:54:25.769Z,43.44
2019-04-23T11:57:14.254Z,43.74
2019-04-23T12:02:26.734Z,42.39
2019-04-23T12:05:26.831Z,41.99
2019-04-23T12:08:17.482Z,42.80
2019-04-23T12:15:54.001Z,40.63
2019-04-23T12:18:43.208Z,40.56
2019-04-23T12:21:22.521Z,40.71
2019-04-23T12:26:29.833Z,40.85
2019-04-23T12:28:57.324Z,40.36
2019-04-23T12:31:32.702Z,40.98
2019-04-23T12:34:07.242Z,40.83
2019-04-23T12:36:42.614Z,39.66
2019-04-23T12:39:21.190Z,40.55
2019-04-23T12:41:51.069Z,40.24
2019-04-23T12:44:22.523Z,39.32
2019-04-23T12:46:55.739Z,40.03
2019-04-23T12:49:50.458Z,40.20
2019-04-23T12:52:02.427Z,42.08
2019-04-23T12:57:31.032Z,40.23
2019-04-23T12:59:44.719Z,40.72
2019-04-23T13:03:29.848Z,39.24
2019-04-23T13:05:54.068Z,39.71
2019-04-23T13:11:10.268Z,38.34
2019-04-23T13:13:48.788Z,37.47
2019-04-23T13:16:16.395Z,39.03
2019-04-23T13:18:49.935Z,38.37
2019-04-23T13:21:48.140Z,38.85
2019-04-23T13:24:04.985Z,39.49
2019-04-23T13:26:31.447Z,39.36
2019-04-23T13:29:13.834Z,38.56
2019-04-23T13:31:36.374Z,38.94
2019-04-23T13:34:13.429Z,38.79
2019-04-23T13:36:53.798Z,37.85
2019-04-23T13:39:18.021Z,38.00
2019-04-23T13:41:46.252Z,38.85
2019-04-23T13:44:21.398Z,38.33
2019-04-23T13:46:54.474Z,38.07
2019-04-23T13:49:28.142Z,38.71
2019-04-23T13:51:58.394Z,37.80
2019-04-23T13:55:04.357Z,38.22
2019-04-23T14:00:25.081Z,37.61
2019-04-23T14:02:37.241Z,36.15
2019-04-23T14:05:27.007Z,37.57
2019-04-23T14:08:01.134Z,37.72
2019-04-23T14:15:59.367Z,37.62
2019-04-23T14:18:43.590Z,37.60
2019-04-23T14:21:10.339Z,37.49
2019-04-23T14:23:37.689Z,36.54
2019-04-23T14:26:10.486Z,36.55
2019-04-23T14:33:51.260Z,37.48
2019-04-23T14:36:07.798Z,37.79
2019-04-23T14:38:41.592Z,37.95
2019-04-23T14:41:26.750Z,37.75
2019-04-23T14:44:00.736Z,38.27
2019-04-23T14:49:04.246Z,38.49
2019-04-23T14:53:52.079Z,38.56
2019-04-23T14:56:29.445Z,39.12
2019-04-23T14:59:04.491Z,38.76
2019-04-23T15:03:45.434Z,38.58
2019-04-23T15:08:52.708Z,38.68
2019-04-23T15:13:44.561Z,39.09
2019-04-23T15:16:31.746Z,38.50
2019-04-23T15:19:38.090Z,38.92
2019-04-23T15:24:22.515Z,38.78
2019-04-23T15:29:07.065Z,39.19
2019-04-23T15:34:25.514Z,39.50
2019-04-23T15:37:13.818Z,39.31
2019-04-23T15:39:58.402Z,39.37
2019-04-23T15:42:10.887Z,39.63
2019-04-23T15:44:31.794Z,40.21
2019-04-23T15:49:45.152Z,40.33
2019-04-23T15:52:24.930Z,40.17
2019-04-23T15:54:47.219Z,40.37
2019-04-23T15:57:28.324Z,40.69
2019-04-23T15:59:55.995Z,40.84
2019-04-23T16:01:57.356Z,40.89
2019-04-23T16:04:27.762Z,41.25
2019-04-23T16:06:59.542Z,42.46
2019-04-23T16:10:04.169Z,42.00
2019-04-23T16:12:27.394Z,41.72
2019-04-23T16:15:06.480Z,41.68
2019-04-23T16:17:35.542Z,42.30
2019-04-23T16:20:21.540Z,42.94
2019-04-23T16:22:39.760Z,42.73
2019-04-23T16:25:16.076Z,42.89
2019-04-23T16:27:51.340Z,43.29
2019-04-23T16:33:10.412Z,42.15
2019-04-23T16:40:54.707Z,42.56
2019-04-23T16:46:03.048Z,43.02
2019-04-23T16:48:46.452Z,42.98
2019-04-23T16:53:29.686Z,42.50
2019-04-23T16:56:19.489Z,42.91
2019-04-23T16:58:44.593Z,42.97
2019-04-23T17:06:04.000Z,41.82
2019-04-23T17:11:10.056Z,38.07
2019-04-23T17:18:44.489Z,39.49
2019-04-23T17:21:14.733Z,40.46
2019-04-23T17:26:20.841Z,40.09
2019-04-23T17:29:01.323Z,40.25
2019-04-23T17:37:03.284Z,40.80
2019-04-23T17:42:16.000Z,43.54
2019-04-23T17:44:47.023Z,44.74
2019-04-23T17:47:22.155Z,46.07
2019-04-23T17:49:59.593Z,46.82
2019-04-23T17:52:29.619Z,47.20
2019-04-23T17:55:04.676Z,47.45
2019-04-23T17:57:29.557Z,48.38
2019-04-23T18:05:06.249Z,49.33
2019-04-23T18:12:48.908Z,51.11
2019-04-23T18:15:15.147Z,51.53
2019-04-23T18:17:52.622Z,53.40
2019-04-23T18:20:29.699Z,54.82
2019-04-23T18:23:07.784Z,55.28
2019-04-23T18:25:45.624Z,56.29
2019-04-23T18:28:19.492Z,57.05
2019-04-23T18:34:03.689Z,57.87
2019-04-23T18:36:15.887Z,58.56
2019-04-23T18:38:55.291Z,59.13
2019-04-23T18:41:17.492Z,59.75
2019-04-23T18:43:56.352Z,59.87
2019-04-23T18:46:35.181Z,59.66
2019-04-23T18:48:53.148Z,58.91
2019-04-23T18:51:37.259Z,58.64
2019-04-23T18:53:56.554Z,57.58
2019-04-23T18:57:00.209Z,58.13
2019-04-23T18:59:21.611Z,58.50
2019-04-23T19:04:11.310Z,59.01
2019-04-23T19:06:34.570Z,58.54
2019-04-23T19:10:03.644Z,58.58
2019-04-23T19:15:11.940Z,54.85
2019-04-23T19:17:50.168Z,53.75
2019-04-23T19:20:38.035Z,53.68
2019-04-23T19:22:55.203Z,54.18
2019-04-23T19:25:23.293Z,53.85
2019-04-23T19:27:57.271Z,54.13
2019-04-23T19:30:41.732Z,54.10
2019-04-23T19:33:16.357Z,53.94
2019-04-23T19:38:19.466Z,54.04
2019-04-23T19:46:00.873Z,54.05
2019-04-23T19:48:30.366Z,54.16
2019-04-23T19:51:03.103Z,54.40
2019-04-23T19:53:44.491Z,54.26
2019-04-23T20:01:18.255Z,54.34
2019-04-23T20:03:49.657Z,54.23
2019-04-23T20:06:27.395Z,54.48
2019-04-23T20:09:10.890Z,54.33
2019-04-23T20:11:32.725Z,54.69
2019-04-23T20:13:55.392Z,54.97
2019-04-23T20:16:40.686Z,54.71
2019-04-23T20:19:11.632Z,54.48
2019-04-23T20:21:47.325Z,54.80
2019-04-23T20:24:20.818Z,54.83
2019-04-23T20:30:02.746Z,55.39
2019-04-23T20:31:44.984Z,55.39
2019-04-23T20:35:15.818Z,55.71
2019-04-23T20:38:08.978Z,55.98
2019-04-23T20:40:15.742Z,55.36
2019-04-23T20:42:49.662Z,56.09
2019-04-23T20:45:16.489Z,55.88
2019-04-23T20:47:51.598Z,55.87
2019-04-23T20:50:23.317Z,55.81
2019-04-23T20:52:55.889Z,55.70
2019-04-23T20:55:38.513Z,56.01
2019-04-23T20:58:14.262Z,55.60
2019-04-23T21:06:08.751Z,55.96
2019-04-23T21:09:08.107Z,55.44
2019-04-23T21:11:38.441Z,55.27
2019-04-23T21:18:48.247Z,56.09
2019-04-23T21:21:28.113Z,56.42
2019-04-23T21:23:55.080Z,56.55
2019-04-23T21:26:29.381Z,56.68
2019-04-23T21:28:54.153Z,57.32
2019-04-23T21:31:53.904Z,56.87
2019-04-23T21:37:00.672Z,57.23
2019-04-23T21:40:15.405Z,57.91
2019-04-23T21:42:54.528Z,58.11
2019-04-23T21:45:06.343Z,58.42
2019-04-23T21:47:51.728Z,58.48
2019-04-23T21:50:19.837Z,58.77
2019-04-23T21:52:48.761Z,58.99
2019-04-23T21:55:20.500Z,59.29
2019-04-23T21:58:07.294Z,59.60
2019-04-23T22:00:19.035Z,59.81
2019-04-23T22:03:02.542Z,59.50
2019-04-23T22:05:37.820Z,60.08
2019-04-23T22:10:31.910Z,60.66
2019-04-23T22:15:45.075Z,60.46
2019-04-23T22:18:07.041Z,60.36
2019-04-23T22:20:46.142Z,60.23
2019-04-23T22:23:11.288Z,60.50
2019-04-23T22:25:56.476Z,60.81
2019-04-23T22:28:16.090Z,60.48
2019-04-23T22:30:54.889Z,60.50
2019-04-23T22:33:29.018Z,60.69
2019-04-23T22:36:04.588Z,60.92
2019-04-23T22:38:25.942Z,60.81
2019-04-23T22:41:01.880Z,60.89
2019-04-23T22:43:31.482Z,60.95
2019-04-23T22:48:57.924Z,60.87
2019-04-23T22:51:24.060Z,60.99
2019-04-23T22:53:55.352Z,61.19
2019-04-23T22:56:17.735Z,61.61
2019-04-23T22:59:01.768Z,61.61
2019-04-23T23:03:41.864Z,62.20
2019-04-23T23:09:07.885Z,62.61
2019-04-23T23:11:14.112Z,62.93
2019-04-23T23:14:10.196Z,64.05
2019-04-23T23:16:21.703Z,63.92
2019-04-23T23:19:05.083Z,64.42
2019-04-23T23:21:29.155Z,64.56
2019-04-23T23:23:59.614Z,65.48
2019-04-23T23:26:35.554Z,65.59
2019-04-23T23:29:04.418Z,66.20
2019-04-23T23:31:42.368Z,67.12
2019-04-23T23:34:15.651Z,67.64
2019-04-23T23:36:47.846Z,67.46
2019-04-23T23:44:32.928Z,68.65
2019-04-23T23:47:03.083Z,69.87
2019-04-23T23:49:36.264Z,70.10
2019-04-23T23:54:52.528Z,71.31
2019-04-23T23:57:12.105Z,71.89
